createdAt,value
2019-05-17T00:00:24.290Z,97527.12
2019-05-17T00:02:57.021Z,97517.86
2019-05-17T00:05:26.616Z,97517.63
2019-05-17T00:07:56.882Z,97510.15
2019-05-17T00:10:27.111Z,97509.45
2019-05-17T00:13:00.218Z,97509.56
2019-05-17T00:15:44.363Z,97505.42
2019-05-17T00:18:16.970Z,97500.14
2019-05-17T00:20:49.615Z,97496.34
2019-05-17T00:23:19.917Z,97491.06
2019-05-17T00:25:50.132Z,97491.93
2019-05-17T00:28:21.841Z,97489.80
2019-05-17T00:30:52.043Z,97485.66
2019-05-17T00:33:22.285Z,97476.84
2019-05-17T00:35:52.494Z,97479.08
2019-05-17T00:38:22.790Z,97478.69
2019-05-17T00:40:52.996Z,97473.95
2019-05-17T00:43:23.231Z,97467.71
2019-05-17T00:45:59.137Z,97464.59
2019-05-17T00:48:29.339Z,97464.61
2019-05-17T00:51:03.413Z,97458.23
2019-05-17T00:53:39.236Z,97461.32
2019-05-17T00:56:09.621Z,97456.09
2019-05-17T00:58:42.993Z,97455.55
2019-05-17T01:01:13.219Z,97457.98
2019-05-17T01:03:43.462Z,97450.50
2019-05-17T01:06:16.915Z,97450.13
2019-05-17T01:09:00.591Z,97446.02
2019-05-17T01:11:19.581Z,97448.20
2019-05-17T01:13:49.768Z,97444.59
2019-05-17T01:16:19.968Z,97446.78
2019-05-17T01:18:50.189Z,97442.79
2019-05-17T01:21:20.408Z,97439.95
2019-05-17T01:23:50.703Z,97441.38
2019-05-17T01:26:21.024Z,97443.91
2019-05-17T01:28:51.272Z,97438.47
2019-05-17T01:31:21.465Z,97434.84
2019-05-17T01:33:51.683Z,97432.84
2019-05-17T01:36:21.894Z,97430.67
2019-05-17T01:38:52.106Z,97432.09
2019-05-17T01:41:22.301Z,97429.42
2019-05-17T01:43:52.498Z,97428.74
2019-05-17T01:46:22.770Z,97430.33
2019-05-17T01:48:52.974Z,97428.16
2019-05-17T01:51:23.178Z,97429.09
2019-05-17T01:53:53.388Z,97429.70
2019-05-17T01:56:23.588Z,97434.69
2019-05-17T01:58:53.786Z,97438.22
2019-05-17T02:01:23.992Z,97441.88
2019-05-17T02:03:54.194Z,97435.36
2019-05-17T02:06:24.423Z,97435.66
2019-05-17T02:08:56.782Z,97434.30
2019-05-17T02:11:27.053Z,97434.88
2019-05-17T02:13:57.358Z,97431.22
2019-05-17T02:16:27.576Z,97426.41
2019-05-17T02:18:57.799Z,97429.90
2019-05-17T02:21:28.036Z,97430.81
2019-05-17T02:23:58.230Z,97431.94
2019-05-17T02:26:28.442Z,97435.66
2019-05-17T02:28:58.720Z,97429.95
2019-05-17T02:31:32.652Z,97428.79
2019-05-17T02:34:03.204Z,97423.72
2019-05-17T02:36:33.573Z,97422.70
2019-05-17T02:39:04.959Z,97423.43
2019-05-17T02:41:35.506Z,97418.73
2019-05-17T02:44:05.919Z,97427.95
2019-05-17T02:46:36.120Z,97428.56
2019-05-17T02:49:06.339Z,97430.02
2019-05-17T02:51:36.556Z,97428.19
2019-05-17T02:54:06.808Z,97424.23
2019-05-17T02:56:37.002Z,97423.67
2019-05-17T02:59:07.276Z,97424.27
2019-05-17T03:01:37.495Z,97422.55
2019-05-17T03:04:07.835Z,97420.11
2019-05-17T03:06:38.041Z,97420.23
2019-05-17T03:09:08.391Z,97425.20
2019-05-17T03:11:38.611Z,97422.08
2019-05-17T03:14:08.902Z,97418.38
2019-05-17T03:16:39.111Z,97421.34
2019-05-17T03:19:12.791Z,97423.02
2019-05-17T03:21:42.900Z,97423.13
2019-05-17T03:24:13.957Z,97421.81
2019-05-17T03:26:44.454Z,97416.44
2019-05-17T03:29:14.655Z,97421.43
2019-05-17T03:31:53.440Z,97426.31
2019-05-17T03:34:17.972Z,97425.63
2019-05-17T03:36:48.714Z,97424.30
2019-05-17T03:39:22.466Z,97425.90
2019-05-17T03:41:53.533Z,97429.42
2019-05-17T03:44:22.877Z,97428.49
2019-05-17T03:46:53.389Z,97433.13
2019-05-17T03:49:23.741Z,97431.48
2019-05-17T03:51:54.062Z,97428.05
2019-05-17T03:54:24.338Z,97425.25
2019-05-17T03:56:54.629Z,97426.89
2019-05-17T03:59:24.925Z,97430.44
2019-05-17T04:01:55.135Z,97427.11
2019-05-17T04:04:25.360Z,97425.52
2019-05-17T04:06:55.568Z,97428.91
2019-05-17T04:09:25.793Z,97427.70
2019-05-17T04:11:56.029Z,97424.22
2019-05-17T04:14:26.235Z,97427.30
2019-05-17T04:16:56.457Z,97428.58
2019-05-17T04:19:26.720Z,97431.27
2019-05-17T04:21:56.935Z,97433.95
2019-05-17T04:24:27.127Z,97428.72
2019-05-17T04:26:57.416Z,97432.33
2019-05-17T04:29:27.729Z,97434.00
2019-05-17T04:31:57.949Z,97432.30
2019-05-17T04:34:28.153Z,97436.80
2019-05-17T04:36:58.376Z,97430.94
2019-05-17T04:39:28.638Z,97430.03
2019-05-17T04:41:58.853Z,97430.79
2019-05-17T04:44:29.047Z,97428.56
2019-05-17T04:47:02.764Z,97429.28
2019-05-17T04:49:33.212Z,97426.64
2019-05-17T04:52:03.827Z,97422.73
2019-05-17T04:54:34.098Z,97421.70
2019-05-17T04:57:04.321Z,97421.31
2019-05-17T04:59:34.686Z,97424.19
2019-05-17T05:02:06.707Z,97426.42
2019-05-17T05:04:38.572Z,97426.70
2019-05-17T05:07:08.999Z,97422.63
2019-05-17T05:09:42.964Z,97422.45
2019-05-17T05:12:12.739Z,97426.09
2019-05-17T05:14:43.336Z,97426.92
2019-05-17T05:17:13.580Z,97426.28
2019-05-17T05:19:44.017Z,97418.97
2019-05-17T05:22:17.410Z,97422.27
2019-05-17T05:24:46.137Z,97420.86
2019-05-17T05:27:17.361Z,97420.39
2019-05-17T05:29:47.603Z,97425.16
2019-05-17T05:32:17.818Z,97421.86
2019-05-17T05:34:48.046Z,97420.00
2019-05-17T05:37:20.257Z,97418.32
2019-05-17T05:39:52.325Z,97422.55
2019-05-17T05:42:22.199Z,97425.95
2019-05-17T05:44:55.109Z,97424.72
2019-05-17T05:47:24.313Z,97423.88
2019-05-17T05:49:54.522Z,97417.66
2019-05-17T05:52:24.749Z,97416.74
2019-05-17T05:54:54.957Z,97409.69
2019-05-17T05:57:25.188Z,97417.02
2019-05-17T05:59:55.421Z,97420.72
2019-05-17T06:02:25.637Z,97422.50
2019-05-17T06:04:55.857Z,97424.72
2019-05-17T06:07:26.060Z,97422.02
2019-05-17T06:09:56.272Z,97423.22
2019-05-17T06:12:28.177Z,97423.72
2019-05-17T06:14:58.606Z,97422.67
2019-05-17T06:17:28.830Z,97415.69
2019-05-17T06:19:59.034Z,97420.55
2019-05-17T06:22:31.705Z,97425.09
2019-05-17T06:25:03.727Z,97421.84
2019-05-17T06:27:33.162Z,97421.42
2019-05-17T06:30:03.598Z,97424.50
2019-05-17T06:32:33.821Z,97425.94
2019-05-17T06:35:05.177Z,97426.09
2019-05-17T06:37:35.402Z,97422.56
2019-05-17T06:40:07.453Z,97423.13
2019-05-17T06:42:41.184Z,97423.03
2019-05-17T06:45:12.350Z,97413.25
2019-05-17T06:47:42.735Z,97418.54
2019-05-17T06:50:14.689Z,97419.09
2019-05-17T06:52:45.019Z,97412.56
2019-05-17T06:55:15.400Z,97405.69
2019-05-17T06:57:45.596Z,97405.31
2019-05-17T07:00:20.718Z,97412.87
2019-05-17T07:02:49.828Z,97402.25
2019-05-17T07:05:30.849Z,97402.78
2019-05-17T07:08:01.066Z,97397.88
2019-05-17T07:10:31.262Z,97399.20
2019-05-17T07:13:12.543Z,97387.80
2019-05-17T07:15:54.430Z,97390.66
2019-05-17T07:18:39.967Z,97387.97
2019-05-17T07:21:10.852Z,97384.96
2019-05-17T07:23:41.818Z,97386.02
2019-05-17T07:26:12.284Z,97376.09
2019-05-17T07:28:42.496Z,97369.56
2019-05-17T07:31:12.823Z,97372.70
2019-05-17T07:33:43.040Z,97368.94
2019-05-17T07:36:13.256Z,97367.22
2019-05-17T07:38:43.488Z,97360.84
2019-05-17T07:41:13.692Z,97355.39
2019-05-17T07:43:43.902Z,97359.25
2019-05-17T07:46:14.104Z,97357.55
2019-05-17T07:48:44.417Z,97361.61
2019-05-17T07:51:14.613Z,97358.30
2019-05-17T07:53:44.825Z,97356.84
2019-05-17T07:56:15.040Z,97346.38
2019-05-17T07:58:45.245Z,97346.52
2019-05-17T08:01:15.462Z,97344.78
2019-05-17T08:03:45.691Z,97340.64
2019-05-17T08:06:15.917Z,97335.14
2019-05-17T08:08:46.137Z,97335.98
2019-05-17T08:11:19.634Z,97335.50
2019-05-17T08:13:50.448Z,97327.67
2019-05-17T08:16:20.918Z,97323.39
2019-05-17T08:18:51.146Z,97316.05
2019-05-17T08:21:21.360Z,97319.45
2019-05-17T08:23:51.609Z,97312.86
2019-05-17T08:26:21.827Z,97303.89
2019-05-17T08:28:52.058Z,97309.39
2019-05-17T08:31:22.289Z,97303.94
2019-05-17T08:33:52.518Z,97307.72
2019-05-17T08:36:22.793Z,97310.44
2019-05-17T08:38:53.099Z,97301.53
2019-05-17T08:41:23.360Z,97299.42
2019-05-17T08:43:53.582Z,97294.71
2019-05-17T08:46:23.810Z,97293.31
2019-05-17T08:48:54.058Z,97284.58
2019-05-17T08:51:24.295Z,97280.06
2019-05-17T08:53:54.532Z,97281.86
2019-05-17T08:56:24.730Z,97282.37
2019-05-17T08:58:55.050Z,97280.14
2019-05-17T09:01:25.263Z,97281.53
2019-05-17T09:03:55.486Z,97275.98
2019-05-17T09:06:25.767Z,97275.23
2019-05-17T09:08:56.001Z,97277.25
2019-05-17T09:11:26.199Z,97270.91
2019-05-17T09:14:01.158Z,97270.78
2019-05-17T09:16:30.762Z,97273.61
2019-05-17T09:19:00.641Z,97267.22
2019-05-17T09:21:31.482Z,97265.25
2019-05-17T09:24:01.854Z,97262.95
2019-05-17T09:26:32.069Z,97258.37
2019-05-17T09:29:02.273Z,97254.95
2019-05-17T09:31:32.583Z,97257.73
2019-05-17T09:34:02.788Z,97252.69
2019-05-17T09:36:33.061Z,97256.09
2019-05-17T09:39:04.897Z,97255.94
2019-05-17T09:41:35.187Z,97254.30
2019-05-17T09:44:12.790Z,97247.44
2019-05-17T09:46:39.586Z,97246.02
2019-05-17T09:49:10.389Z,97245.17
2019-05-17T09:51:40.784Z,97241.91
2019-05-17T09:54:11.099Z,97241.43
2019-05-17T09:56:41.307Z,97243.23
2019-05-17T09:59:11.561Z,97240.28
2019-05-17T10:01:41.750Z,97234.70
2019-05-17T10:04:13.410Z,97231.92
2019-05-17T10:06:44.062Z,97228.79
2019-05-17T10:09:14.941Z,97227.29
2019-05-17T10:11:45.233Z,97221.20
2019-05-17T10:14:25.800Z,97219.39
2019-05-17T10:16:47.404Z,97215.44
2019-05-17T10:19:20.842Z,97214.73
2019-05-17T10:21:49.696Z,97206.20
2019-05-17T10:24:23.962Z,97207.66
2019-05-17T10:26:51.841Z,97205.97
2019-05-17T10:29:22.064Z,97204.63
2019-05-17T10:31:52.311Z,97205.20
2019-05-17T10:34:22.521Z,97201.87
2019-05-17T10:36:52.760Z,97200.03
2019-05-17T10:39:22.979Z,97201.33
2019-05-17T10:41:53.235Z,97204.40
2019-05-17T10:44:23.455Z,97200.61
2019-05-17T10:46:53.680Z,97196.33
2019-05-17T10:49:23.902Z,97193.05
2019-05-17T10:51:54.146Z,97189.30
2019-05-17T10:54:24.358Z,97185.66
2019-05-17T10:56:54.671Z,97187.03
2019-05-17T10:59:24.936Z,97181.38
2019-05-17T11:01:55.176Z,97180.31
2019-05-17T11:04:25.399Z,97180.34
2019-05-17T11:06:55.787Z,97172.65
2019-05-17T11:09:26.776Z,97174.08
2019-05-17T11:11:57.010Z,97170.59
2019-05-17T11:14:27.216Z,97169.45
2019-05-17T11:16:57.501Z,97172.56
2019-05-17T11:19:27.852Z,97168.73
2019-05-17T11:21:58.079Z,97171.30
2019-05-17T11:24:28.294Z,97171.02
2019-05-17T11:26:58.519Z,97162.20
2019-05-17T11:29:28.813Z,97158.98
2019-05-17T11:31:59.022Z,97155.73
2019-05-17T11:34:29.228Z,97151.81
2019-05-17T11:36:59.535Z,97150.66
2019-05-17T11:39:29.807Z,97153.16
2019-05-17T11:42:00.122Z,97149.77
2019-05-17T11:44:30.327Z,97153.02
2019-05-17T11:47:00.639Z,97152.14
2019-05-17T11:49:30.864Z,97141.53
2019-05-17T11:52:01.102Z,97143.13
2019-05-17T11:54:31.493Z,97148.44
2019-05-17T11:57:01.722Z,97143.19
2019-05-17T11:59:31.996Z,97135.73
2019-05-17T12:02:02.295Z,97140.69
2019-05-17T12:04:32.638Z,97139.62
2019-05-17T12:07:15.427Z,97140.83
2019-05-17T12:09:45.724Z,97129.56
2019-05-17T12:12:16.038Z,97127.22
2019-05-17T12:14:46.292Z,97123.28
2019-05-17T12:17:16.490Z,97119.22
2019-05-17T12:19:55.076Z,97122.61
2019-05-17T12:22:25.296Z,97122.89
2019-05-17T12:24:55.501Z,97114.45
2019-05-17T12:27:25.711Z,97109.61
2019-05-17T12:29:56.016Z,97105.71
2019-05-17T12:32:26.208Z,97104.44
2019-05-17T12:34:56.465Z,97099.48
2019-05-17T12:37:26.657Z,97093.19
2019-05-17T12:39:56.880Z,97092.62
2019-05-17T12:42:27.108Z,97088.80
2019-05-17T12:44:57.366Z,97091.77
2019-05-17T12:47:27.563Z,97088.67
2019-05-17T12:49:57.786Z,97086.39
2019-05-17T12:52:28.065Z,97083.11
2019-05-17T12:54:58.337Z,97081.77
2019-05-17T12:57:28.565Z,97074.32
2019-05-17T12:59:58.792Z,97077.94
2019-05-17T13:02:29.000Z,97073.80
2019-05-17T13:04:59.324Z,97066.31
2019-05-17T13:07:29.530Z,97063.32
2019-05-17T13:09:59.839Z,97061.98
2019-05-17T13:12:30.071Z,97060.27
2019-05-17T13:15:00.365Z,97060.38
2019-05-17T13:17:30.684Z,97057.16
2019-05-17T13:20:00.943Z,97055.44
2019-05-17T13:22:31.251Z,97056.63
2019-05-17T13:25:01.444Z,97052.59
2019-05-17T13:27:31.653Z,97045.62
2019-05-17T13:30:01.870Z,97050.01
2019-05-17T13:32:32.086Z,97050.59
2019-05-17T13:35:02.287Z,97052.83
2019-05-17T13:37:32.528Z,97042.36
2019-05-17T13:40:03.198Z,97039.97
2019-05-17T13:42:33.419Z,97038.64
2019-05-17T13:45:05.729Z,97040.05
2019-05-17T13:47:35.963Z,97030.92
2019-05-17T13:50:07.870Z,97032.86
2019-05-17T13:56:33.326Z,97024.88
2019-05-17T13:59:03.523Z,97023.13
2019-05-17T14:01:33.750Z,97023.98
2019-05-17T14:04:04.039Z,97018.44
2019-05-17T14:06:34.232Z,97023.80
2019-05-17T14:09:07.456Z,97023.09
2019-05-17T14:11:37.694Z,97021.75
2019-05-17T14:14:07.989Z,97017.75
2019-05-17T14:16:38.495Z,97015.52
2019-05-17T14:19:08.761Z,97011.23
2019-05-17T14:21:39.024Z,97017.59
2019-05-17T14:24:09.274Z,97019.96
2019-05-17T14:26:39.606Z,97014.59
2019-05-17T14:29:09.825Z,97016.30
2019-05-17T14:31:40.034Z,97011.45
2019-05-17T14:34:10.246Z,97013.13
2019-05-17T14:36:40.564Z,97016.78
2019-05-17T14:39:10.828Z,97006.99
2019-05-17T14:41:41.086Z,97008.53
2019-05-17T14:44:11.351Z,97010.60
2019-05-17T14:46:41.563Z,97008.59
2019-05-17T14:49:11.787Z,97002.55
2019-05-17T14:51:41.996Z,97008.37
2019-05-17T14:54:12.258Z,97002.52
2019-05-17T14:56:42.721Z,96999.86
2019-05-17T14:59:12.978Z,96995.73
2019-05-17T15:01:43.256Z,96986.19
2019-05-17T15:04:13.519Z,96981.20
2019-05-17T15:06:43.753Z,96971.30
2019-05-17T15:09:13.996Z,96965.90
2019-05-17T15:11:44.226Z,96961.86
2019-05-17T15:14:14.446Z,96960.18
2019-05-17T15:16:44.671Z,96957.69
2019-05-17T15:19:14.881Z,96951.47
2019-05-17T15:21:45.125Z,96955.47
2019-05-17T15:24:15.321Z,96948.38
2019-05-17T15:26:45.626Z,96945.81
2019-05-17T15:29:15.839Z,96947.67
2019-05-17T15:31:46.055Z,96938.92
2019-05-17T15:34:16.278Z,96936.64
2019-05-17T15:36:46.514Z,96936.52
2019-05-17T15:39:16.820Z,96932.22
2019-05-17T15:41:47.247Z,96923.86
2019-05-17T15:44:18.071Z,96922.09
2019-05-17T15:46:48.329Z,96921.58
2019-05-17T15:49:18.524Z,96917.31
2019-05-17T15:51:48.924Z,96913.53
2019-05-17T15:54:19.131Z,96909.20
2019-05-17T15:56:49.360Z,96904.11
2019-05-17T15:59:19.556Z,96908.80
2019-05-17T16:01:49.791Z,96909.69
2019-05-17T16:04:20.074Z,96907.48
2019-05-17T16:06:50.432Z,96905.56
2019-05-17T16:09:20.664Z,96901.99
2019-05-17T16:11:50.889Z,96909.43
2019-05-17T16:14:21.079Z,96905.66
2019-05-17T16:16:51.310Z,96903.95
2019-05-17T16:19:21.515Z,96902.71
2019-05-17T16:21:51.711Z,96906.23
2019-05-17T16:24:21.942Z,96909.88
2019-05-17T16:26:52.159Z,96908.23
2019-05-17T16:29:22.418Z,96910.61
2019-05-17T16:31:52.690Z,96913.46
2019-05-17T16:34:22.971Z,96920.14
2019-05-17T16:36:53.177Z,96911.16
2019-05-17T16:39:23.380Z,96909.44
2019-05-17T16:41:53.581Z,96905.55
2019-05-17T16:44:23.793Z,96908.27
2019-05-17T16:46:54.090Z,96908.98
2019-05-17T16:49:24.309Z,96908.30
2019-05-17T16:51:54.784Z,96906.37
2019-05-17T16:54:25.011Z,96906.95
2019-05-17T16:56:55.239Z,96906.80
2019-05-17T16:59:25.622Z,96905.05
2019-05-17T17:01:55.889Z,96901.38
2019-05-17T17:04:26.129Z,96901.75
2019-05-17T17:06:56.336Z,96903.98
2019-05-17T17:09:26.546Z,96910.73
2019-05-17T17:11:56.739Z,96908.13
2019-05-17T17:14:26.957Z,96910.96
2019-05-17T17:16:57.158Z,96910.07
2019-05-17T17:19:27.371Z,96900.13
2019-05-17T17:21:57.694Z,96907.77
2019-05-17T17:24:27.961Z,96907.98
2019-05-17T17:26:58.316Z,96910.60
2019-05-17T17:29:28.562Z,96910.20
2019-05-17T17:31:58.859Z,96904.76
2019-05-17T17:34:29.087Z,96903.92
2019-05-17T17:36:59.316Z,96906.80
2019-05-17T17:39:29.535Z,96904.59
2019-05-17T17:41:59.753Z,96910.13
2019-05-17T17:44:29.957Z,96906.70
2019-05-17T17:47:00.189Z,96905.58
2019-05-17T17:49:30.625Z,96903.89
2019-05-17T17:52:00.889Z,96908.32
2019-05-17T17:54:31.116Z,96908.23
2019-05-17T17:57:01.326Z,96903.12
2019-05-17T17:59:31.518Z,96900.61
2019-05-17T18:02:01.734Z,96897.19
2019-05-17T18:04:31.959Z,96898.00
2019-05-17T18:07:02.166Z,96905.14
2019-05-17T18:09:32.375Z,96906.48
2019-05-17T18:12:02.616Z,96910.95
2019-05-17T18:14:32.913Z,96909.66
2019-05-17T18:17:03.130Z,96911.60
2019-05-17T18:19:33.375Z,96914.39
2019-05-17T18:22:03.555Z,96917.12
2019-05-17T18:24:33.778Z,96919.17
2019-05-17T18:27:04.001Z,96923.72
2019-05-17T18:29:34.241Z,96926.06
2019-05-17T18:32:04.513Z,96922.72
2019-05-17T18:34:34.743Z,96930.82
2019-05-17T18:37:05.025Z,96933.38
2019-05-17T18:39:35.257Z,96930.30
2019-05-17T18:42:05.530Z,96929.53
2019-05-17T18:44:35.826Z,96931.06
2019-05-17T18:47:06.212Z,96933.06
2019-05-17T18:49:36.435Z,96939.35
2019-05-17T18:52:06.720Z,96938.77
2019-05-17T18:54:36.956Z,96938.81
2019-05-17T18:57:07.149Z,96941.52
2019-05-17T18:59:37.364Z,96942.20
2019-05-17T19:02:07.590Z,96944.22
2019-05-17T19:04:37.792Z,96951.14
2019-05-17T19:07:08.178Z,96953.50
2019-05-17T19:09:38.483Z,96955.29
2019-05-17T19:12:08.759Z,96963.21
2019-05-17T19:14:42.998Z,96964.38
2019-05-17T19:17:10.935Z,96967.39
2019-05-17T19:19:41.907Z,96964.97
2019-05-17T19:22:12.137Z,96971.20
2019-05-17T19:24:42.423Z,96971.27
2019-05-17T19:27:12.652Z,96976.18
2019-05-17T19:29:43.485Z,96981.48
2019-05-17T19:32:13.711Z,96985.13
2019-05-17T19:34:43.925Z,96984.80
2019-05-17T19:37:14.150Z,96986.31
2019-05-17T19:39:44.398Z,96992.41
2019-05-17T19:42:14.615Z,96999.29
2019-05-17T19:44:57.946Z,96997.68
2019-05-17T19:47:16.740Z,97001.47
2019-05-17T19:49:47.004Z,96995.75
2019-05-17T19:52:18.441Z,96996.07
2019-05-17T19:54:48.663Z,96998.23
2019-05-17T19:57:18.873Z,97004.81
2019-05-17T19:59:49.107Z,97003.66
2019-05-17T20:02:19.365Z,97004.19
2019-05-17T20:04:49.595Z,97006.13
2019-05-17T20:07:19.797Z,97005.48
2019-05-17T20:09:50.134Z,97007.61
2019-05-17T20:12:20.353Z,97007.30
2019-05-17T20:14:50.572Z,97008.30
2019-05-17T20:17:21.461Z,97004.36
2019-05-17T20:19:51.687Z,97005.20
2019-05-17T20:22:21.903Z,97013.25
2019-05-17T20:24:52.158Z,97014.39
2019-05-17T20:27:22.362Z,97008.67
2019-05-17T20:29:52.757Z,97019.80
2019-05-17T20:32:22.989Z,97018.02
2019-05-17T20:34:53.230Z,97018.52
2019-05-17T20:37:23.418Z,97020.30
2019-05-17T20:39:53.647Z,97017.69
2019-05-17T20:42:23.881Z,97015.08
2019-05-17T20:44:54.157Z,97009.82
2019-05-17T20:47:24.546Z,97007.21
2019-05-17T20:49:54.790Z,97005.25
2019-05-17T20:52:25.005Z,97005.06
2019-05-17T20:54:55.247Z,97004.25
2019-05-17T20:57:25.466Z,97003.93
2019-05-17T20:59:55.686Z,96997.52
2019-05-17T21:02:26.120Z,97000.11
2019-05-17T21:04:56.323Z,97002.08
2019-05-17T21:07:26.530Z,97004.86
2019-05-17T21:09:56.771Z,97000.09
2019-05-17T21:12:26.971Z,97008.27
2019-05-17T21:14:57.192Z,97002.88
2019-05-17T21:17:27.399Z,97008.44
2019-05-17T21:19:57.647Z,97005.47
2019-05-17T21:22:27.871Z,97005.14
2019-05-17T21:24:58.101Z,97000.89
2019-05-17T21:27:28.332Z,96999.71
2019-05-17T21:29:58.571Z,97007.40
2019-05-17T21:32:28.762Z,97003.80
2019-05-17T21:34:59.024Z,97010.02
2019-05-17T21:37:29.302Z,97009.20
2019-05-17T21:39:59.524Z,97013.91
2019-05-17T21:42:29.741Z,97009.16
2019-05-17T21:44:59.957Z,97014.23
2019-05-17T21:47:30.160Z,97012.42
2019-05-17T21:50:00.373Z,97013.08
2019-05-17T21:52:30.588Z,97013.41
2019-05-17T21:55:00.789Z,97015.50
2019-05-17T21:57:31.000Z,97011.24
2019-05-17T22:00:01.286Z,97007.97
2019-05-17T22:02:31.626Z,97011.40
2019-05-17T22:05:01.858Z,97010.75
2019-05-17T22:07:32.075Z,97013.03
2019-05-17T22:10:02.304Z,97011.20
2019-05-17T22:12:32.496Z,97013.64
2019-05-17T22:15:02.697Z,97013.80
2019-05-17T22:17:32.901Z,97019.69
2019-05-17T22:20:03.468Z,97015.92
2019-05-17T22:22:33.708Z,97017.55
2019-05-17T22:25:05.240Z,97018.33
2019-05-17T22:27:35.495Z,97020.45
2019-05-17T22:30:10.476Z,97018.31
2019-05-17T22:32:40.698Z,97013.90
2019-05-17T22:35:11.123Z,97009.93
2019-05-17T22:37:41.378Z,97014.50
2019-05-17T22:40:11.644Z,97012.20
2019-05-17T22:42:41.878Z,97011.38
2019-05-17T22:45:13.013Z,97013.47
2019-05-17T22:47:43.248Z,97007.05
2019-05-17T22:50:13.816Z,97014.55
2019-05-17T22:52:44.111Z,97011.28
2019-05-17T22:55:14.651Z,97013.39
2019-05-17T22:57:44.882Z,97014.16
2019-05-17T23:00:15.681Z,97014.48
2019-05-17T23:02:45.927Z,97015.62
2019-05-17T23:05:16.134Z,97009.89
2019-05-17T23:07:46.955Z,97003.84
2019-05-17T23:10:18.699Z,97002.66
2019-05-17T23:12:48.939Z,97000.84
2019-05-17T23:15:19.471Z,97003.78
2019-05-17T23:17:49.711Z,97001.15
2019-05-17T23:20:19.998Z,97003.22
2019-05-17T23:22:50.213Z,96996.52
2019-05-17T23:25:20.424Z,96997.47
2019-05-17T23:27:50.627Z,96998.24
2019-05-17T23:30:20.827Z,96998.23
2019-05-17T23:32:51.021Z,97002.46
2019-05-17T23:35:21.251Z,97000.66
2019-05-17T23:37:51.447Z,96999.98
2019-05-17T23:40:21.669Z,96998.30
2019-05-17T23:42:51.866Z,97001.56
2019-05-17T23:45:22.076Z,97001.70
2019-05-17T23:47:52.274Z,96999.24
2019-05-17T23:50:22.491Z,96995.64
2019-05-17T23:52:52.704Z,97003.09
2019-05-17T23:55:22.917Z,97003.73
2019-05-17T23:57:53.178Z,97005.03
